Time;durP1;ratioP1;P1;durP2;ratioP2;P2;SDS_P1;SDS_P2;PMS_P1;PMS_P2;Temp;Humidity;BMP_temperature;BMP_pressure;BME280_temperature;BME280_humidity;BME280_pressure;Samples;Min_cycle;Max_cycle;Signal;HPM_P1;HPM_P2
2024/04/24 00:00:31;;;;;;;10.93;8.23;;;0.80;19.90;;;;;;5374702;26;20225;-70
2024/04/24 00:03:02;;;;;;;8.50;6.03;;;0.70;20.80;;;;;;5345538;26;20260;-71
2024/04/24 00:05:30;;;;;;;9.07;6.53;;;0.60;21.50;;;;;;5374471;26;20699;-69
2024/04/24 00:07:56;;;;;;;10.98;7.10;;;0.60;21.50;;;;;;5344759;26;20288;-69
2024/04/24 00:10:22;;;;;;;9.80;7.73;;;0.50;21.50;;;;;;5375089;26;20572;-69
2024/04/24 00:12:47;;;;;;;8.60;6.80;;;0.40;22.30;;;;;;5374336;26;20451;-70
2024/04/24 00:15:13;;;;;;;10.63;7.93;;;0.40;22.70;;;;;;5373432;26;20694;-70
2024/04/24 00:17:39;;;;;;;10.93;7.70;;;0.40;22.90;;;;;;5373995;26;20229;-69
2024/04/24 00:20:05;;;;;;;10.83;7.30;;;0.30;23.10;;;;;;5343023;26;20263;-69
2024/04/24 00:22:30;;;;;;;8.23;6.68;;;0.30;23.70;;;;;;5373352;26;20298;-69
2024/04/24 00:24:56;;;;;;;12.40;9.27;;;0.20;23.70;;;;;;5341739;26;20294;-69
2024/04/24 00:27:22;;;;;;;8.27;6.50;;;0.20;24.20;;;;;;5372822;26;20658;-70
2024/04/24 00:29:47;;;;;;;9.90;7.80;;;0.20;24.10;;;;;;5373119;26;20228;-68
2024/04/24 00:32:13;;;;;;;11.43;6.80;;;0.20;24.90;;;;;;5372397;26;20220;-69
2024/04/24 00:34:38;;;;;;;9.20;7.83;;;0.20;24.30;;;;;;5341954;26;20231;-68
2024/04/24 00:37:04;;;;;;;9.20;7.60;;;0.10;23.90;;;;;;5373344;26;20270;-69
2024/04/24 00:39:30;;;;;;;10.33;7.40;;;0.10;23.90;;;;;;5373032;26;20229;-68
2024/04/24 00:41:55;;;;;;;10.37;9.10;;;0.10;24.30;;;;;;5372846;26;20296;-69
2024/04/24 00:44:21;;;;;;;10.50;7.90;;;0.00;24.60;;;;;;5372800;26;20228;-70
2024/04/24 00:46:46;;;;;;;10.70;8.30;;;0.00;25.20;;;;;;5372745;26;20270;-69
2024/04/24 00:49:13;;;;;;;8.17;7.23;;;0.00;25.70;;;;;;5372788;26;20262;-71
2024/04/24 00:51:41;;;;;;;10.88;7.10;;;0.10;25.90;;;;;;5341871;26;20259;-71
2024/04/24 00:54:07;;;;;;;12.70;8.45;;;0.00;25.40;;;;;;5372813;26;20615;-69
2024/04/24 00:56:33;;;;;;;8.07;6.82;;;0.00;25.20;;;;;;5372844;26;20564;-69
2024/04/24 00:58:59;;;;;;;9.90;7.00;;;0.00;25.30;;;;;;5372963;26;20370;-69
2024/04/24 01:01:25;;;;;;;11.53;8.13;;;0.00;25.20;;;;;;5372260;26;20456;-70
2024/04/24 01:03:51;;;;;;;9.55;7.10;;;-0.10;25.10;;;;;;5372197;26;20445;-68
2024/04/24 01:06:16;;;;;;;10.87;7.00;;;-0.20;25.00;;;;;;5372123;26;20295;-69
2024/04/24 01:08:42;;;;;;;15.87;8.87;;;-0.20;25.10;;;;;;5341291;26;20374;-70
2024/04/24 01:11:08;;;;;;;8.13;6.43;;;-0.20;25.00;;;;;;5371936;26;20220;-70
2024/04/24 01:13:34;;;;;;;8.80;6.53;;;-0.20;25.40;;;;;;5341232;26;20463;-69
2024/04/24 01:16:12;;;;;;;14.40;6.97;;;-0.30;25.60;;;;;;5372283;26;20240;-69
2024/04/24 01:18:45;;;;;;;8.32;6.60;;;-0.30;25.70;;;;;;5371870;26;20235;-69
2024/04/24 01:21:12;;;;;;;10.65;7.40;;;-0.30;25.40;;;;;;5372100;26;20272;-70
2024/04/24 01:23:56;;;;;;;10.30;8.27;;;-0.30;25.50;;;;;;5372393;26;20223;-69
2024/04/24 01:26:44;;;;;;;9.73;7.72;;;-0.40;26.20;;;;;;5372423;26;20599;-69
2024/04/24 01:29:10;;;;;;;15.23;8.55;;;-0.40;25.40;;;;;;5372721;26;20243;-71
2024/04/24 01:31:36;;;;;;;16.73;8.63;;;-0.50;25.30;;;;;;5341794;26;20234;-69
2024/04/24 01:34:02;;;;;;;8.70;6.27;;;-0.50;25.70;;;;;;5340890;26;21085;-68
2024/04/24 01:36:27;;;;;;;9.37;7.10;;;-0.60;24.80;;;;;;5340102;26;20701;-70
2024/04/24 01:38:53;;;;;;;9.07;7.37;;;-0.60;26.50;;;;;;5341366;26;20247;-70
2024/04/24 01:41:19;;;;;;;9.60;8.27;;;-0.60;27.10;;;;;;5341974;26;20224;-69
2024/04/24 01:43:44;;;;;;;13.50;7.80;;;-0.70;26.10;;;;;;5371525;26;20219;-68
2024/04/24 01:46:10;;;;;;;13.40;6.60;;;-0.60;28.20;;;;;;5371594;26;20274;-70
2024/04/24 01:48:35;;;;;;;11.77;7.70;;;-0.60;27.50;;;;;;5403151;21;20270;-71
2024/04/24 01:51:01;;;;;;;11.07;7.80;;;-0.50;27.90;;;;;;5413747;26;20223;-71
2024/04/24 01:53:26;;;;;;;11.00;7.17;;;-0.50;28.30;;;;;;5414523;26;20318;-72
2024/04/24 01:55:52;;;;;;;11.37;8.60;;;-0.50;28.20;;;;;;5414431;26;20327;-72
2024/04/24 01:58:17;;;;;;;10.37;7.30;;;-0.50;27.30;;;;;;5415861;26;20260;-71
2024/04/24 02:00:43;;;;;;;10.47;7.20;;;-0.50;27.40;;;;;;5412734;26;20229;-71
2024/04/24 02:03:08;;;;;;;11.77;8.60;;;-0.50;27.50;;;;;;5414788;26;20213;-71
2024/04/24 02:05:34;;;;;;;8.67;7.27;;;-0.50;27.20;;;;;;5414167;26;20214;-71
2024/04/24 02:08:00;;;;;;;12.30;7.13;;;-0.50;27.40;;;;;;5412642;26;20276;-71
2024/04/24 02:10:25;;;;;;;14.30;7.13;;;-0.50;28.00;;;;;;5414472;26;20809;-71
2024/04/24 02:12:51;;;;;;;10.70;7.03;;;-0.50;27.70;;;;;;5414563;26;20216;-72
2024/04/24 02:15:16;;;;;;;10.83;7.93;;;-0.40;27.50;;;;;;5414001;26;20234;-71
2024/04/24 02:17:42;;;;;;;10.67;7.63;;;-0.30;27.00;;;;;;5414571;26;20229;-71
2024/04/24 02:20:08;;;;;;;11.43;7.53;;;-0.20;26.20;;;;;;5414089;26;20617;-71
2024/04/24 02:22:33;;;;;;;11.57;8.32;;;-0.20;25.40;;;;;;5414012;26;20215;-71
2024/04/24 02:27:43;;;;;;;9.43;6.68;;;0.00;24.90;;;;;;5414088;26;20320;-71
2024/04/24 02:30:09;;;;;;;9.80;7.43;;;0.10;23.30;;;;;;5414406;26;20674;-71
2024/04/24 02:32:34;;;;;;;9.13;7.23;;;0.20;22.60;;;;;;5412086;26;20543;-71
2024/04/24 02:35:00;;;;;;;9.70;6.60;;;0.30;21.30;;;;;;5413535;26;20239;-71
2024/04/24 02:37:26;;;;;;;11.17;7.20;;;0.30;20.40;;;;;;5414002;26;20698;-71
2024/04/24 02:39:52;;;;;;;6.78;5.45;;;0.40;19.90;;;;;;5413478;26;20321;-71
2024/04/24 02:42:17;;;;;;;10.53;6.67;;;0.40;17.90;;;;;;5411958;26;20691;-71
2024/04/24 02:44:43;;;;;;;8.80;5.87;;;0.50;16.80;;;;;;5411646;26;20711;-70
2024/04/24 02:47:08;;;;;;;8.27;5.77;;;0.60;15.30;;;;;;5413414;26;20741;-70
2024/04/24 02:49:34;;;;;;;8.57;6.50;;;0.70;14.90;;;;;;5413564;26;20710;-70
2024/04/24 02:51:59;;;;;;;7.63;6.10;;;0.80;14.40;;;;;;5414923;26;20215;-70
2024/04/24 02:54:25;;;;;;;8.00;6.30;;;0.90;13.30;;;;;;5413422;26;20270;-70
2024/04/24 02:56:50;;;;;;;6.13;5.20;;;0.80;12.00;;;;;;5411131;26;20224;-71
2024/04/24 02:59:16;;;;;;;9.47;5.80;;;0.90;10.50;;;;;;5413199;26;20281;-71
2024/04/24 03:01:41;;;;;;;8.47;6.43;;;0.90;9.00;;;;;;5413483;26;20269;-71
2024/04/24 03:04:07;;;;;;;7.50;6.50;;;1.00;9.00;;;;;;5416714;26;20235;-71
2024/04/24 03:06:32;;;;;;;8.50;5.63;;;1.10;9.10;;;;;;5416676;26;20819;-71
2024/04/24 03:08:58;;;;;;;8.97;6.37;;;1.10;9.10;;;;;;5416792;26;20587;-71
2024/04/24 03:11:24;;;;;;;8.93;6.43;;;1.20;8.20;;;;;;5415172;26;20239;-70
2024/04/24 03:13:49;;;;;;;7.10;4.67;;;1.20;7.30;;;;;;5417012;26;20676;-73
2024/04/24 03:16:15;;;;;;;7.60;5.63;;;1.30;6.30;;;;;;5416960;26;20266;-71
2024/04/24 03:18:42;;;;;;;6.80;5.00;;;1.30;5.30;;;;;;5415019;26;20259;-71
2024/04/24 03:21:08;;;;;;;6.63;5.93;;;1.30;4.90;;;;;;5416643;26;20553;-71
2024/04/24 03:23:33;;;;;;;8.20;4.80;;;1.30;4.80;;;;;;5414776;26;20254;-71
2024/04/24 03:25:59;;;;;;;7.23;5.00;;;1.30;4.90;;;;;;5416035;26;20827;-69
2024/04/24 03:28:24;;;;;;;6.57;5.37;;;1.30;5.40;;;;;;5415290;26;20247;-70
2024/04/24 03:30:50;;;;;;;5.03;4.17;;;1.40;4.90;;;;;;5417018;26;20315;-70
2024/04/24 03:33:15;;;;;;;8.77;5.30;;;1.40;4.90;;;;;;5416773;26;20332;-70
2024/04/24 03:35:41;;;;;;;5.30;4.40;;;1.50;3.60;;;;;;5416198;26;20269;-70
2024/04/24 03:38:07;;;;;;;7.33;5.80;;;1.60;2.20;;;;;;5416823;26;20282;-70
2024/04/24 03:40:32;;;;;;;7.73;5.37;;;1.60;1.30;;;;;;5416286;26;20227;-71
2024/04/24 03:42:58;;;;;;;7.30;5.27;;;1.60;3.40;;;;;;5416529;26;20216;-71
2024/04/24 03:45:23;;;;;;;6.33;5.10;;;1.60;4.00;;;;;;5415929;26;20266;-71
2024/04/24 03:47:49;;;;;;;9.43;6.00;;;1.70;4.30;;;;;;5416208;26;20572;-71
2024/04/24 03:50:14;;;;;;;6.33;5.10;;;1.70;4.70;;;;;;5414589;26;20786;-71
2024/04/24 03:52:40;;;;;;;5.90;3.87;;;1.70;4.50;;;;;;5416376;26;20219;-70
2024/04/24 03:55:05;;;;;;;6.23;5.60;;;1.70;3.80;;;;;;5413783;26;20312;-71
2024/04/24 03:57:31;;;;;;;7.80;5.80;;;1.80;3.40;;;;;;5416400;26;20517;-71
2024/04/24 03:59:56;;;;;;;7.90;5.40;;;1.80;1.90;;;;;;5416371;26;20232;-71
2024/04/24 04:02:22;;;;;;;8.33;5.23;;;1.80;2.20;;;;;;5416099;26;21089;-71
2024/04/24 04:04:47;;;;;;;8.20;5.27;;;1.80;2.10;;;;;;5415862;26;20215;-71
2024/04/24 04:07:13;;;;;;;7.37;4.97;;;1.80;2.80;;;;;;5414393;26;20219;-71
2024/04/24 04:09:38;;;;;;;8.53;5.43;;;1.80;3.30;;;;;;5414164;26;20237;-71
2024/04/24 04:12:07;;;;;;;7.57;5.70;;;1.70;4.20;;;;;;5416334;26;20220;-71
2024/04/24 04:14:33;;;;;;;5.32;4.55;;;1.70;4.80;;;;;;5413409;26;20721;-70
2024/04/24 04:16:59;;;;;;;8.40;5.50;;;1.70;5.10;;;;;;5415826;26;20215;-71
2024/04/24 04:19:24;;;;;;;7.00;5.10;;;1.70;4.70;;;;;;5416147;26;20290;-70
2024/04/24 04:21:51;;;;;;;6.57;5.50;;;1.70;4.70;;;;;;5416195;26;20291;-71
2024/04/24 04:24:17;;;;;;;7.57;5.57;;;1.70;3.80;;;;;;5415939;26;20223;-71
2024/04/24 04:26:42;;;;;;;8.40;5.93;;;1.60;3.10;;;;;;5415733;26;20219;-71
2024/04/24 04:29:08;;;;;;;6.33;4.40;;;1.70;2.80;;;;;;5415952;26;20686;-70
2024/04/24 04:31:33;;;;;;;9.93;6.30;;;1.70;2.40;;;;;;5416016;26;20223;-70
2024/04/24 04:33:59;;;;;;;8.03;5.67;;;1.80;2.60;;;;;;5415800;26;20296;-70
2024/04/24 04:36:24;;;;;;;7.70;4.77;;;1.80;2.70;;;;;;5415466;26;20228;-71
2024/04/24 04:38:50;;;;;;;7.53;5.50;;;1.80;3.00;;;;;;5415527;26;20266;-71
2024/04/24 04:41:15;;;;;;;8.90;5.53;;;1.90;3.00;;;;;;5414075;26;20225;-71
2024/04/24 04:43:41;;;;;;;9.20;6.07;;;1.90;2.20;;;;;;5415651;26;20265;-71
2024/04/24 04:46:07;;;;;;;8.03;5.40;;;2.00;1.00;;;;;;5413465;26;20228;-71
2024/04/24 04:48:32;;;;;;;6.70;4.90;;;2.00;1.00;;;;;;5413673;26;20245;-71
2024/04/24 04:51:00;;;;;;;8.30;6.47;;;2.20;1.00;;;;;;5415421;26;20331;-71
2024/04/24 04:53:25;;;;;;;7.38;5.00;;;2.20;1.00;;;;;;5415560;26;20215;-70
2024/04/24 04:55:51;;;;;;;9.17;5.33;;;2.20;1.00;;;;;;5413636;26;20753;-71
2024/04/24 04:58:17;;;;;;;6.10;5.20;;;2.30;1.00;;;;;;5415760;26;20248;-71
2024/04/24 05:00:42;;;;;;;9.10;6.37;;;2.30;1.00;;;;;;5413453;26;20505;-71
2024/04/24 05:03:08;;;;;;;8.43;5.80;;;2.50;1.00;;;;;;5415057;26;20357;-71
2024/04/24 05:05:33;;;;;;;7.83;4.90;;;2.60;1.00;;;;;;5415025;26;20258;-70
2024/04/24 05:07:59;;;;;;;6.87;5.00;;;2.60;1.00;;;;;;5414592;26;20253;-71
2024/04/24 05:10:24;;;;;;;7.10;5.30;;;2.70;1.00;;;;;;5414586;26;20225;-71
2024/04/24 05:12:50;;;;;;;6.33;5.20;;;2.80;1.00;;;;;;5414730;26;20242;-73
2024/04/24 05:15:15;;;;;;;8.70;4.70;;;3.00;1.00;;;;;;5416380;26;20217;-70
2024/04/24 05:17:41;;;;;;;6.43;5.03;;;3.00;1.00;;;;;;5415429;26;20292;-69
2024/04/24 05:20:07;;;;;;;6.97;5.37;;;3.10;1.00;;;;;;5414147;26;20696;-70
2024/04/24 05:22:46;;;;;;;8.77;5.40;;;3.40;1.00;;;;;;5415495;26;20221;-71
2024/04/24 05:25:13;;;;;;;10.27;6.15;;;3.70;1.00;;;;;;5414409;26;20563;-70
2024/04/24 05:30:23;;;;;;;6.13;4.50;;;4.10;1.00;;;;;;5415784;26;20321;-71
2024/04/24 05:32:49;;;;;;;5.90;4.50;;;4.30;1.00;;;;;;5414582;26;20241;-71
2024/04/24 05:35:15;;;;;;;5.57;4.47;;;4.30;1.00;;;;;;5414792;26;20257;-71
2024/04/24 05:37:40;;;;;;;8.37;6.27;;;4.30;1.00;;;;;;5414936;26;20237;-71
2024/04/24 05:40:08;;;;;;;8.27;6.60;;;4.40;1.00;;;;;;5413178;26;20278;-71
2024/04/24 05:42:33;;;;;;;9.20;6.78;;;4.50;1.00;;;;;;5415164;26;20220;-70
2024/04/24 05:44:59;;;;;;;6.37;5.40;;;4.70;1.00;;;;;;5414363;26;20227;-70
2024/04/24 05:47:25;;;;;;;10.13;6.20;;;5.00;1.00;;;;;;5414773;26;20224;-70
2024/04/24 05:49:52;;;;;;;8.23;5.30;;;5.40;1.00;;;;;;5414924;26;20270;-70
2024/04/24 05:52:18;;;;;;;7.80;4.77;;;5.50;1.00;;;;;;5415014;26;20453;-70
2024/04/24 05:54:43;;;;;;;7.90;5.23;;;5.90;1.00;;;;;;5412946;26;20577;-71
2024/04/24 05:57:09;;;;;;;6.80;5.90;;;6.30;1.00;;;;;;5415317;26;20331;-71
2024/04/24 05:59:35;;;;;;;5.80;4.53;;;6.20;1.00;;;;;;5415083;26;20235;-70
2024/04/24 06:02:03;;;;;;;6.67;5.17;;;6.40;1.00;;;;;;5415596;26;20270;-72
2024/04/24 06:04:29;;;;;;;7.10;4.50;;;6.30;1.00;;;;;;5414811;26;20445;-70
2024/04/24 06:06:54;;;;;;;5.73;5.10;;;6.40;1.00;;;;;;5414665;26;20873;-71
2024/04/24 06:09:20;;;;;;;8.07;5.30;;;8.60;1.00;;;;;;5415053;26;20238;-71
2024/04/24 06:11:46;;;;;;;6.87;5.23;;;10.40;1.00;;;;;;5414573;26;20227;-70
2024/04/24 06:14:11;;;;;;;6.53;5.83;;;12.10;1.00;;;;;;5414395;26;20223;-70
2024/04/24 06:16:37;;;;;;;8.03;6.70;;;;;;;;;;5414246;26;20223;-70
2024/04/24 06:19:03;;;;;;;6.73;6.20;;;;;;;;;;5412782;26;20282;-70
2024/04/24 06:21:29;;;;;;;7.47;6.47;;;;;;;;;;5414701;26;21058;-70
2024/04/24 06:23:56;;;;;;;6.97;6.00;;;;;;;;;;5413609;26;20957;-70
2024/04/24 06:26:22;;;;;;;8.90;8.20;;;;;;;;;;5412425;26;20520;-70
2024/04/24 06:28:48;;;;;;;8.20;7.40;;;;;;;;;;5414358;26;20500;-71
2024/04/24 06:31:14;;;;;;;7.70;7.00;;;;;;;;;;5414323;26;20445;-70
2024/04/24 06:33:39;;;;;;;8.93;8.23;;;20.20;1.00;;;;;;5412917;26;21073;-71
2024/04/24 06:36:05;;;;;;;7.80;7.10;;;20.20;1.00;;;;;;5414601;26;20449;-70
2024/04/24 06:38:31;;;;;;;7.80;7.20;;;21.20;1.00;;;;;;5417523;26;20378;-70
2024/04/24 06:40:57;;;;;;;8.23;7.60;;;;;;;;;;5416070;26;20449;-70
2024/04/24 06:43:23;;;;;;;7.60;6.90;;;22.50;1.00;;;;;;5416423;26;20622;-70
2024/04/24 06:45:48;;;;;;;7.30;6.80;;;22.00;1.00;;;;;;5415746;26;20497;-70
2024/04/24 06:48:14;;;;;;;8.63;7.83;;;22.90;1.00;;;;;;5418256;26;20269;-71
2024/04/24 06:50:43;;;;;;;8.10;7.30;;;21.10;1.00;;;;;;5418053;26;20670;-70
2024/04/24 06:53:08;;;;;;;8.80;8.07;;;20.30;1.00;;;;;;5417860;26;20228;-70
2024/04/24 06:55:36;;;;;;;8.47;7.47;;;19.30;1.00;;;;;;5417630;26;20505;-70
2024/04/24 06:58:02;;;;;;;6.80;6.17;;;18.10;1.00;;;;;;5418021;26;20236;-71
2024/04/24 07:00:30;;;;;;;10.73;7.90;;;17.20;1.00;;;;;;5418055;26;20496;-71
2024/04/24 07:02:56;;;;;;;8.10;6.80;;;16.50;1.00;;;;;;5417450;26;20219;-71
2024/04/24 07:05:21;;;;;;;6.77;6.17;;;15.40;1.00;;;;;;5417014;26;20449;-70
2024/04/24 07:07:47;;;;;;;7.83;7.13;;;14.40;1.00;;;;;;5416106;26;20872;-70
2024/04/24 07:10:12;;;;;;;6.77;6.07;;;13.00;1.00;;;;;;5416311;26;20723;-71
2024/04/24 07:12:38;;;;;;;7.90;7.10;;;11.90;1.00;;;;;;5418658;26;20228;-71
2024/04/24 07:15:04;;;;;;;7.20;6.50;;;11.60;1.00;;;;;;5419243;26;20232;-70
2024/04/24 07:17:29;;;;;;;8.67;6.93;;;11.20;1.00;;;;;;5418112;26;20224;-70
2024/04/24 07:19:55;;;;;;;6.13;5.50;;;11.20;1.00;;;;;;5417680;26;20220;-70
2024/04/24 07:22:20;;;;;;;8.27;7.20;;;11.10;1.00;;;;;;5415627;26;20289;-70
2024/04/24 07:24:46;;;;;;;7.63;7.00;;;13.20;1.00;;;;;;5415312;26;20321;-70
2024/04/24 07:27:11;;;;;;;8.60;7.80;;;14.40;1.00;;;;;;5417575;26;20330;-70
2024/04/24 07:29:37;;;;;;;7.53;6.90;;;;;;;;;;5417245;26;20752;-71
2024/04/24 07:32:03;;;;;;;7.57;7.00;;;18.60;1.00;;;;;;5415527;26;20231;-70
2024/04/24 07:34:28;;;;;;;8.47;7.80;;;19.90;1.00;;;;;;5415227;26;20470;-70
2024/04/24 07:36:54;;;;;;;8.63;7.83;;;21.10;1.00;;;;;;5417409;26;20223;-70
2024/04/24 07:39:20;;;;;;;8.73;7.97;;;22.90;1.00;;;;;;5415321;26;20513;-70
2024/04/24 07:41:45;;;;;;;8.67;7.93;;;22.30;1.00;;;;;;5417275;26;20223;-70
2024/04/24 07:44:11;;;;;;;9.20;8.20;;;18.90;1.00;;;;;;5415091;26;20651;-70
2024/04/24 07:46:36;;;;;;;8.67;7.87;;;17.20;1.00;;;;;;5416910;26;20586;-70
2024/04/24 07:49:02;;;;;;;11.57;10.37;;;16.50;1.00;;;;;;5424641;21;20268;-71
2024/04/24 07:51:27;;;;;;;9.43;8.70;;;15.10;1.00;;;;;;5368948;26;20312;-71
2024/04/24 07:53:53;;;;;;;9.30;7.80;;;14.20;1.00;;;;;;5369208;26;20221;-70
2024/04/24 07:56:18;;;;;;;8.07;7.27;;;13.10;1.00;;;;;;5368996;26;20220;-71
2024/04/24 07:58:44;;;;;;;11.43;9.10;;;12.20;1.00;;;;;;5369019;26;20297;-70
2024/04/24 08:01:09;;;;;;;9.37;8.37;;;11.40;1.00;;;;;;5368812;26;20269;-71
2024/04/24 08:03:35;;;;;;;11.50;7.53;;;11.10;1.00;;;;;;5368404;26;20608;-70
2024/04/24 08:06:01;;;;;;;8.80;7.90;;;10.30;1.00;;;;;;5368334;26;20668;-71
2024/04/24 08:08:26;;;;;;;8.90;8.00;;;10.20;1.00;;;;;;5369271;26;20294;-71
2024/04/24 08:10:52;;;;;;;8.83;7.97;;;9.60;1.00;;;;;;5367007;26;20312;-71
2024/04/24 08:13:19;;;;;;;9.57;8.73;;;9.30;1.00;;;;;;5369137;26;20224;-71
2024/04/24 08:15:45;;;;;;;9.03;6.87;;;9.00;1.00;;;;;;5366743;26;20584;-69
2024/04/24 08:18:10;;;;;;;8.73;7.93;;;8.80;1.00;;;;;;5366549;26;20914;-71
2024/04/24 08:20:36;;;;;;;7.97;7.27;;;8.60;1.00;;;;;;5368437;26;20262;-71
2024/04/24 08:23:01;;;;;;;8.03;7.23;;;8.40;1.00;;;;;;5368469;26;20683;-70
2024/04/24 08:25:27;;;;;;;8.07;7.27;;;8.50;1.00;;;;;;5366444;26;20231;-71
2024/04/24 08:27:53;;;;;;;8.00;7.20;;;8.40;1.00;;;;;;5368802;26;20282;-71
2024/04/24 08:30:18;;;;;;;8.73;7.80;;;8.50;1.00;;;;;;5368619;26;20583;-71
2024/04/24 08:32:44;;;;;;;7.63;6.93;;;8.40;1.00;;;;;;5368181;26;20220;-70
2024/04/24 08:35:11;;;;;;;7.90;7.00;;;8.70;1.00;;;;;;5368222;26;20240;-70
2024/04/24 08:37:36;;;;;;;8.10;7.30;;;9.00;1.00;;;;;;5371656;26;20745;-71
2024/04/24 08:40:02;;;;;;;7.90;7.20;;;8.90;1.00;;;;;;5374441;26;20541;-71
2024/04/24 08:42:28;;;;;;;10.23;8.63;;;8.80;1.00;;;;;;5378701;26;20218;-70
2024/04/24 08:44:58;;;;;;;10.60;6.87;;;9.30;1.00;;;;;;5378572;26;20262;-70
2024/04/24 08:47:25;;;;;;;7.90;6.90;;;9.10;1.00;;;;;;5376035;26;20997;-71
2024/04/24 08:49:53;;;;;;;7.07;6.37;;;8.90;1.00;;;;;;5374807;26;20482;-71
2024/04/24 08:52:24;;;;;;;7.97;6.07;;;9.10;1.00;;;;;;5371395;26;20498;-70
2024/04/24 08:54:57;;;;;;;8.10;7.30;;;9.10;1.00;;;;;;5372016;26;20454;-71
2024/04/24 08:57:25;;;;;;;6.60;5.90;;;9.00;1.00;;;;;;5373700;26;20458;-71
2024/04/24 08:59:56;;;;;;;7.10;6.40;;;9.00;1.00;;;;;;5369064;26;20530;-71
2024/04/24 09:02:26;;;;;;;6.63;5.53;;;9.20;1.00;;;;;;5369042;26;20592;-70
2024/04/24 09:04:54;;;;;;;8.60;7.50;;;9.00;1.00;;;;;;5395736;26;20462;-71
2024/04/24 09:07:22;;;;;;;7.33;6.60;;;8.90;1.00;;;;;;5368033;26;20459;-70
2024/04/24 09:09:48;;;;;;;7.90;6.73;;;8.70;1.00;;;;;;5365933;26;20816;-70
2024/04/24 09:12:15;;;;;;;6.93;6.13;;;8.60;1.00;;;;;;5369090;26;21011;-71
2024/04/24 09:14:41;;;;;;;8.23;7.33;;;8.50;1.00;;;;;;5368660;26;20451;-71
2024/04/24 09:17:06;;;;;;;6.93;6.07;;;8.40;1.00;;;;;;5368103;26;20530;-72
2024/04/24 09:19:32;;;;;;;7.80;6.00;;;8.10;1.00;;;;;;5368589;26;20363;-71
2024/04/24 09:21:59;;;;;;;6.57;5.97;;;8.20;1.00;;;;;;5368121;26;20270;-71
2024/04/24 09:24:28;;;;;;;7.53;6.67;;;8.30;1.00;;;;;;5368390;26;20334;-71
2024/04/24 09:26:55;;;;;;;6.43;5.57;;;8.30;1.00;;;;;;5367678;26;20572;-70
2024/04/24 09:29:21;;;;;;;7.07;6.37;;;8.50;1.00;;;;;;5367591;26;20875;-70
2024/04/24 09:31:48;;;;;;;10.13;6.97;;;8.70;1.00;;;;;;5365840;26;20520;-70
2024/04/24 09:34:13;;;;;;;6.50;5.90;;;8.90;1.00;;;;;;5367783;26;20255;-71
2024/04/24 09:36:44;;;;;;;8.57;6.67;;;9.10;1.00;;;;;;5365775;26;20469;-70
2024/04/24 09:39:13;;;;;;;7.67;6.97;;;9.10;1.00;;;;;;5368054;26;20249;-71
2024/04/24 09:41:43;;;;;;;8.20;6.40;;;9.20;1.00;;;;;;5367874;26;20458;-70
2024/04/24 09:44:12;;;;;;;8.40;7.60;;;9.60;1.00;;;;;;5368089;26;21024;-72
2024/04/24 09:46:47;;;;;;;6.83;6.23;;;9.70;1.00;;;;;;5366208;26;20486;-71
2024/04/24 09:49:13;;;;;;;7.93;7.13;;;9.50;1.00;;;;;;5367376;26;20465;-71
2024/04/24 09:51:39;;;;;;;6.90;6.20;;;9.30;1.00;;;;;;5367403;26;20451;-71
2024/04/24 09:54:07;;;;;;;7.47;6.60;;;8.70;1.00;;;;;;5365383;26;20333;-71
2024/04/24 09:56:40;;;;;;;7.27;5.57;;;8.30;1.00;;;;;;5367252;26;20505;-71
2024/04/24 09:59:09;;;;;;;9.13;6.70;;;8.10;1.00;;;;;;5367349;26;20465;-71
2024/04/24 10:01:37;;;;;;;8.63;6.37;;;8.00;1.00;;;;;;5367006;26;20858;-70
2024/04/24 10:04:03;;;;;;;8.53;7.20;;;7.90;1.00;;;;;;5366801;26;20568;-70
2024/04/24 10:06:33;;;;;;;7.83;6.97;;;7.80;1.00;;;;;;5367764;26;20511;-72
2024/04/24 10:09:00;;;;;;;13.10;6.50;;;7.80;1.00;;;;;;5369013;26;20460;-70
2024/04/24 10:11:37;;;;;;;10.33;7.80;;;8.00;1.00;;;;;;5368193;26;20465;-70
2024/04/24 10:14:05;;;;;;;9.47;6.20;;;8.00;1.00;;;;;;5372360;26;20834;-71
2024/04/24 10:16:31;;;;;;;6.10;5.50;;;8.20;1.00;;;;;;5369094;26;20503;-70
2024/04/24 10:18:59;;;;;;;7.93;6.00;;;8.00;1.00;;;;;;5369563;26;20484;-70
2024/04/24 10:21:24;;;;;;;6.83;5.90;;;8.10;1.00;;;;;;5370703;26;20516;-70
2024/04/24 10:23:51;;;;;;;6.10;5.50;;;8.30;1.00;;;;;;5370119;26;20798;-71
2024/04/24 10:26:19;;;;;;;7.50;6.80;;;8.40;1.00;;;;;;5397604;26;20253;-69
2024/04/24 10:28:48;;;;;;;5.70;5.20;;;8.30;1.00;;;;;;5370177;26;20627;-71
2024/04/24 10:31:14;;;;;;;6.73;6.03;;;8.20;1.00;;;;;;5370034;26;20513;-71
2024/04/24 10:33:41;;;;;;;6.97;5.37;;;8.00;1.00;;;;;;5369981;26;20464;-69
2024/04/24 10:36:10;;;;;;;6.10;5.50;;;7.80;1.00;;;;;;5370756;26;20452;-70
2024/04/24 10:38:35;;;;;;;7.73;6.07;;;7.70;1.00;;;;;;5370401;26;21041;-71
2024/04/24 10:41:01;;;;;;;6.53;5.93;;;7.40;1.00;;;;;;5369854;26;20566;-70
2024/04/24 10:43:28;;;;;;;6.30;5.63;;;7.30;1.00;;;;;;5367862;26;20269;-71
2024/04/24 10:45:55;;;;;;;7.50;6.17;;;7.20;1.00;;;;;;5370012;26;20218;-70
2024/04/24 10:48:21;;;;;;;8.33;5.60;;;7.20;1.00;;;;;;5370021;26;20520;-71
2024/04/24 10:50:49;;;;;;;10.40;8.00;;;7.30;1.00;;;;;;5370086;26;20451;-71
2024/04/24 10:53:14;;;;;;;7.30;6.50;;;7.20;1.00;;;;;;5370041;26;20294;-71
2024/04/24 10:55:55;;;;;;;7.27;6.40;;;7.20;1.00;;;;;;5369683;26;20456;-71
2024/04/24 10:58:22;;;;;;;6.33;5.73;;;7.20;1.00;;;;;;5370440;26;20233;-71
2024/04/24 11:00:47;;;;;;;8.50;5.67;;;7.20;1.00;;;;;;5368276;26;20467;-70
2024/04/24 11:03:17;;;;;;;6.50;5.83;;;7.10;1.00;;;;;;5370118;26;20497;-71
2024/04/24 11:05:42;;;;;;;9.00;7.03;;;7.00;1.00;;;;;;5369795;26;20248;-71
2024/04/24 11:08:15;;;;;;;7.33;5.90;;;7.00;1.00;;;;;;5369794;26;20647;-71
2024/04/24 11:10:49;;;;;;;8.80;7.17;;;7.00;1.00;;;;;;5369695;26;20801;-71
2024/04/24 11:13:18;;;;;;;7.97;6.40;;;6.90;1.00;;;;;;5370144;26;20863;-71
2024/04/24 11:15:43;;;;;;;6.63;5.37;;;6.90;1.00;;;;;;5369616;26;21044;-70
2024/04/24 11:18:13;;;;;;;9.87;7.40;;;6.80;1.00;;;;;;5369635;26;20482;-71
2024/04/24 11:20:38;;;;;;;5.70;5.10;;;6.90;1.00;;;;;;5369982;26;20252;-71
2024/04/24 11:23:10;;;;;;;8.47;6.90;;;6.90;1.00;;;;;;5369312;26;20996;-71
2024/04/24 11:25:37;;;;;;;7.30;6.60;;;6.90;1.00;;;;;;5369569;26;20371;-70
2024/04/24 11:28:02;;;;;;;7.17;6.47;;;7.30;1.00;;;;;;5369580;26;20871;-70
2024/04/24 11:30:28;;;;;;;9.13;7.60;;;7.60;1.00;;;;;;5369590;26;20490;-70
2024/04/24 11:32:54;;;;;;;9.13;7.13;;;7.60;1.00;;;;;;5369506;26;20230;-71
2024/04/24 11:35:26;;;;;;;7.10;6.33;;;8.00;1.00;;;;;;5369630;26;20223;-71
2024/04/24 11:37:52;;;;;;;7.47;6.60;;;8.10;1.00;;;;;;5369846;26;20977;-70
2024/04/24 11:40:18;;;;;;;8.17;7.00;;;7.80;1.00;;;;;;5370129;26;20452;-71
2024/04/24 11:42:48;;;;;;;6.27;5.03;;;7.60;1.00;;;;;;5367733;26;20455;-70
2024/04/24 11:45:15;;;;;;;7.40;6.20;;;7.50;1.00;;;;;;5369724;26;20538;-70
2024/04/24 11:47:41;;;;;;;7.90;7.13;;;7.30;1.00;;;;;;5381255;26;20477;-71
2024/04/24 11:50:07;;;;;;;8.10;6.60;;;7.20;1.00;;;;;;5385458;26;20444;-72
2024/04/24 11:52:36;;;;;;;5.87;5.00;;;6.90;1.00;;;;;;5383374;26;20483;-69
2024/04/24 11:55:02;;;;;;;7.17;5.20;;;7.00;1.00;;;;;;5383327;26;20875;-71
2024/04/24 11:57:38;;;;;;;6.60;5.53;;;7.00;1.00;;;;;;5378567;26;20475;-70
2024/04/24 12:00:05;;;;;;;7.97;5.43;;;7.00;1.00;;;;;;5379320;26;20216;-69
2024/04/24 12:02:31;;;;;;;6.07;5.37;;;7.10;1.00;;;;;;5370154;26;20443;-71
2024/04/24 12:04:57;;;;;;;7.27;6.23;;;7.20;1.00;;;;;;5369424;26;20857;-70
2024/04/24 12:07:28;;;;;;;9.13;6.10;;;7.50;1.00;;;;;;5370109;26;20452;-70
2024/04/24 12:09:53;;;;;;;10.00;7.73;;;7.80;1.00;;;;;;5369060;26;20280;-71
2024/04/24 12:12:19;;;;;;;6.53;5.73;;;7.90;1.00;;;;;;5369973;26;20445;-71
2024/04/24 12:14:48;;;;;;;6.90;6.20;;;8.30;1.00;;;;;;5368857;26;20447;-70
2024/04/24 12:17:14;;;;;;;7.13;6.10;;;8.30;1.00;;;;;;5369823;26;20234;-70
2024/04/24 12:19:41;;;;;;;7.47;6.33;;;8.60;1.00;;;;;;5367733;26;20473;-70
2024/04/24 12:22:06;;;;;;;6.40;5.07;;;8.60;1.00;;;;;;5396788;26;20383;-70
2024/04/24 12:24:32;;;;;;;6.33;5.47;;;8.90;1.00;;;;;;5367298;26;20871;-70
2024/04/24 12:26:58;;;;;;;8.43;5.57;;;9.30;1.00;;;;;;5369465;26;20271;-71
2024/04/24 12:29:24;;;;;;;5.50;4.80;;;9.30;1.00;;;;;;5369439;26;20837;-70
2024/04/24 12:31:50;;;;;;;7.47;5.20;;;9.50;1.00;;;;;;5369427;26;20341;-70
2024/04/24 12:34:18;;;;;;;6.03;5.40;;;9.80;1.00;;;;;;5368970;26;20228;-71
2024/04/24 12:36:44;;;;;;;5.83;5.23;;;9.90;1.00;;;;;;5368824;26;20454;-72
2024/04/24 12:39:10;;;;;;;6.33;5.37;;;10.20;1.00;;;;;;5369227;26;20463;-70
2024/04/24 12:41:36;;;;;;;5.40;4.87;;;9.90;1.00;;;;;;5369899;26;20503;-71
2024/04/24 12:44:05;;;;;;;4.47;4.03;;;9.80;1.00;;;;;;5367693;26;20236;-71
2024/04/24 12:46:36;;;;;;;7.13;5.80;;;9.80;1.00;;;;;;5369364;26;20502;-71
2024/04/24 12:49:03;;;;;;;9.10;4.63;;;9.70;1.00;;;;;;5367186;26;20486;-70
2024/04/24 12:51:30;;;;;;;6.57;5.30;;;9.70;1.00;;;;;;5396538;26;20475;-71
2024/04/24 12:53:56;;;;;;;4.50;4.10;;;10.00;1.00;;;;;;5369409;26;20534;-70
2024/04/24 12:56:27;;;;;;;5.63;5.07;;;10.20;1.00;;;;;;5369457;26;20458;-70
2024/04/24 12:58:52;;;;;;;5.23;3.73;;;10.10;1.00;;;;;;5369714;26;20758;-71
2024/04/24 13:01:21;;;;;;;5.00;4.37;;;10.30;1.00;;;;;;5371594;26;20482;-71
2024/04/24 13:03:47;;;;;;;5.90;5.40;;;10.30;1.00;;;;;;5369771;26;20221;-71